Augusta Springs, Virginia
Current Conditions -  °F | °C
As of 1:35 AM on Monday 24 Nov 2014 (Local Time) from KW13 Reporting Station
Overcast Overcast  
Wind Chill: 52°   Ceiling: 1900
Heat Index: 52°   Visibility: 10mi
Dew Point: 51°   Wind: 10mph
Humidity: 99%   Direction: 160°SSE
Pressure: 29.65"   Gusts: 18mph
Location:  38.1°N, 79.32°W
Report Text: KW13 240635Z AUTO 16009G16KT 10SM SCT009 BKN019 OVC036 11/11 A2965 RMK AO1 T01090107
Loading
Personal Weather Stations






























Interactive Weather Map New forecast layout! Learn more

10-Day Weather Forecast

Advertisements
Track Severe Weather on mobile